sensor_id;sensor_type;location;lat;lon;timestamp;pressure;altitude;pressure_sealevel;temperature;humidity
28428;BME280;15662;49.128;8.520;2023-03-01T00:01:44;101403.13;;;6.08;38.08
28428;BME280;15662;49.128;8.520;2023-03-01T00:04:12;101404.91;;;6.11;38.00
28428;BME280;15662;49.128;8.520;2023-03-01T00:06:42;101399.66;;;6.12;38.04
28428;BME280;15662;49.128;8.520;2023-03-01T00:09:11;101403.16;;;6.11;38.07
28428;BME280;15662;49.128;8.520;2023-03-01T00:11:39;101401.41;;;6.13;38.25
28428;BME280;15662;49.128;8.520;2023-03-01T00:14:07;101409.34;;;6.16;38.00
28428;BME280;15662;49.128;8.520;2023-03-01T00:16:41;101401.44;;;6.18;38.12
28428;BME280;15662;49.128;8.520;2023-03-01T00:19:14;101396.19;;;6.18;38.07
28428;BME280;15662;49.128;8.520;2023-03-01T00:21:42;101390.72;;;5.98;38.26
28428;BME280;15662;49.128;8.520;2023-03-01T00:24:10;101397.81;;;6.05;38.24
28428;BME280;15662;49.128;8.520;2023-03-01T00:26:38;101400.47;;;6.10;38.01
28428;BME280;15662;49.128;8.520;2023-03-01T00:29:06;101394.38;;;6.14;38.08
28428;BME280;15662;49.128;8.520;2023-03-01T00:31:34;101396.13;;;6.15;38.29
28428;BME280;15662;49.128;8.520;2023-03-01T00:34:05;101387.31;;;6.10;38.11
28428;BME280;15662;49.128;8.520;2023-03-01T00:36:36;101397.91;;;6.14;38.24
28428;BME280;15662;49.128;8.520;2023-03-01T00:39:09;101390.00;;;6.13;38.27
28428;BME280;15662;49.128;8.520;2023-03-01T00:41:38;101387.34;;;6.11;38.39
28428;BME280;15662;49.128;8.520;2023-03-01T00:44:09;101392.63;;;6.13;38.47
28428;BME280;15662;49.128;8.520;2023-03-01T00:46:37;101391.75;;;6.11;38.41
28428;BME280;15662;49.128;8.520;2023-03-01T00:49:05;101400.47;;;6.10;38.40
28428;BME280;15662;49.128;8.520;2023-03-01T00:51:33;101385.53;;;6.03;38.64
28428;BME280;15662;49.128;8.520;2023-03-01T00:54:03;101399.59;;;6.06;38.33
28428;BME280;15662;49.128;8.520;2023-03-01T00:56:31;101398.69;;;6.03;38.55
28428;BME280;15662;49.128;8.520;2023-03-01T00:59:00;101403.91;;;6.00;38.58
28428;BME280;15662;49.128;8.520;2023-03-01T01:01:30;101408.28;;;6.01;38.89
28428;BME280;15662;49.128;8.520;2023-03-01T01:04:11;101404.78;;;6.00;38.94
28428;BME280;15662;49.128;8.520;2023-03-01T01:06:44;101399.50;;;5.97;38.83
28428;BME280;15662;49.128;8.520;2023-03-01T01:09:15;101405.66;;;5.96;38.65
28428;BME280;15662;49.128;8.520;2023-03-01T01:11:50;101408.25;;;5.94;38.62
28428;BME280;15662;49.128;8.520;2023-03-01T01:14:19;101401.22;;;5.93;39.02
28428;BME280;15662;49.128;8.520;2023-03-01T01:16:48;101401.13;;;5.90;39.09
28428;BME280;15662;49.128;8.520;2023-03-01T01:19:17;101393.25;;;5.89;38.95
28428;BME280;15662;49.128;8.520;2023-03-01T01:21:45;101393.25;;;5.89;38.95
28428;BME280;15662;49.128;8.520;2023-03-01T01:24:13;101387.97;;;5.87;39.01
28428;BME280;15662;49.128;8.520;2023-03-01T01:26:42;101385.34;;;5.87;38.96
28428;BME280;15662;49.128;8.520;2023-03-01T01:29:10;101373.84;;;5.81;39.09
28428;BME280;15662;49.128;8.520;2023-03-01T01:31:41;101374.78;;;5.86;39.38
28428;BME280;15662;49.128;8.520;2023-03-01T01:34:16;101368.63;;;5.85;39.10
28428;BME280;15662;49.128;8.520;2023-03-01T01:36:49;101368.63;;;5.85;38.96
28428;BME280;15662;49.128;8.520;2023-03-01T01:39:17;101363.38;;;5.82;39.47
28428;BME280;15662;49.128;8.520;2023-03-01T01:41:46;101371.25;;;5.82;39.29
28428;BME280;15662;49.128;8.520;2023-03-01T01:44:25;101358.94;;;5.80;39.63
28428;BME280;15662;49.128;8.520;2023-03-01T01:47:16;101362.44;;;5.79;39.46
28428;BME280;15662;49.128;8.520;2023-03-01T01:49:51;101352.75;;;5.73;39.54
28428;BME280;15662;49.128;8.520;2023-03-01T01:52:29;101350.97;;;5.70;39.40
28428;BME280;15662;49.128;8.520;2023-03-01T01:55:11;101347.44;;;5.67;39.39
28428;BME280;15662;49.128;8.520;2023-03-01T01:57:46;101347.41;;;5.65;39.31
28428;BME280;15662;49.128;8.520;2023-03-01T02:00:23;101338.63;;;5.62;39.32
28428;BME280;15662;49.128;8.520;2023-03-01T02:03:13;101341.22;;;5.59;39.79
28428;BME280;15662;49.128;8.520;2023-03-01T02:05:59;101337.66;;;5.54;39.70
28428;BME280;15662;49.128;8.520;2023-03-01T02:08:31;101320.94;;;5.47;39.85
28428;BME280;15662;49.128;8.520;2023-03-01T02:11:01;101330.53;;;5.42;39.94
28428;BME280;15662;49.128;8.520;2023-03-01T02:13:33;101326.97;;;5.37;40.09
28428;BME280;15662;49.128;8.520;2023-03-01T02:16:09;101324.34;;;5.37;40.23
28428;BME280;15662;49.128;8.520;2023-03-01T02:18:39;101316.34;;;5.31;40.22
28428;BME280;15662;49.128;8.520;2023-03-01T02:26:53;101309.28;;;5.22;40.63
28428;BME280;15662;49.128;8.520;2023-03-01T02:29:23;101308.41;;;5.23;40.60
28428;BME280;15662;49.128;8.520;2023-03-01T02:31:53;101297.00;;;5.23;40.33
28428;BME280;15662;49.128;8.520;2023-03-01T02:34:26;101285.63;;;5.24;40.77
28428;BME280;15662;49.128;8.520;2023-03-01T02:37:06;101290.03;;;5.26;40.69
28428;BME280;15662;49.128;8.520;2023-03-01T02:39:57;101282.13;;;5.25;40.82
28428;BME280;15662;49.128;8.520;2023-03-01T02:42:36;101277.75;;;5.25;40.46
28428;BME280;15662;49.128;8.520;2023-03-01T02:45:08;101281.28;;;5.27;40.87
28428;BME280;15662;49.128;8.520;2023-03-01T02:47:37;101290.06;;;5.29;40.55
28428;BME280;15662;49.128;8.520;2023-03-01T02:53:08;101289.19;;;5.32;40.70
28428;BME280;15662;49.128;8.520;2023-03-01T02:55:38;101280.44;;;5.31;40.60
28428;BME280;15662;49.128;8.520;2023-03-01T02:58:07;101279.59;;;5.35;40.55
28428;BME280;15662;49.128;8.520;2023-03-01T03:00:57;101284.88;;;5.35;40.57
28428;BME280;15662;49.128;8.520;2023-03-01T03:03:26;101287.59;;;5.43;40.60
28428;BME280;15662;49.128;8.520;2023-03-01T03:05:54;101284.97;;;5.43;40.21
28428;BME280;15662;49.128;8.520;2023-03-01T03:08:22;101280.56;;;5.43;40.20
28428;BME280;15662;49.128;8.520;2023-03-01T03:10:52;101280.63;;;5.48;40.42
28428;BME280;15662;49.128;8.520;2023-03-01T03:13:20;101275.38;;;5.48;40.26
28428;BME280;15662;49.128;8.520;2023-03-01T03:15:49;101273.59;;;5.47;40.35
28428;BME280;15662;49.128;8.520;2023-03-01T03:18:18;101263.94;;;5.46;40.54
28428;BME280;15662;49.128;8.520;2023-03-01T03:20:46;101271.84;;;5.49;40.24
28428;BME280;15662;49.128;8.520;2023-03-01T03:23:16;101272.75;;;5.50;40.04
28428;BME280;15662;49.128;8.520;2023-03-01T03:25:44;101259.59;;;5.48;40.15
28428;BME280;15662;49.128;8.520;2023-03-01T03:28:11;101262.22;;;5.48;40.58
28428;BME280;15662;49.128;8.520;2023-03-01T03:30:41;101262.22;;;5.48;40.63
28428;BME280;15662;49.128;8.520;2023-03-01T03:33:11;101266.56;;;5.46;39.98
28428;BME280;15662;49.128;8.520;2023-03-01T03:35:45;101262.13;;;5.40;40.75
28428;BME280;15662;49.128;8.520;2023-03-01T03:38:16;101262.13;;;5.40;40.22
28428;BME280;15662;49.128;8.520;2023-03-01T03:43:21;101264.69;;;5.33;40.43
28428;BME280;15662;49.128;8.520;2023-03-01T03:45:50;101249.75;;;5.27;40.61
28428;BME280;15662;49.128;8.520;2023-03-01T03:48:19;101246.22;;;5.25;40.51
28428;BME280;15662;49.128;8.520;2023-03-01T03:50:53;101242.69;;;5.25;41.01
28428;BME280;15662;49.128;8.520;2023-03-01T03:53:24;101238.31;;;5.24;40.66
28428;BME280;15662;49.128;8.520;2023-03-01T03:55:52;101240.91;;;5.21;40.89
28428;BME280;15662;49.128;8.520;2023-03-01T03:58:23;101235.69;;;5.25;40.87
28428;BME280;15662;49.128;8.520;2023-03-01T04:00:55;101240.06;;;5.25;40.63
28428;BME280;15662;49.128;8.520;2023-03-01T04:03:25;101237.50;;;5.29;40.86
28428;BME280;15662;49.128;8.520;2023-03-01T04:05:54;101233.06;;;5.27;40.56
28428;BME280;15662;49.128;8.520;2023-03-01T04:08:24;101237.50;;;5.29;40.40
28428;BME280;15662;49.128;8.520;2023-03-01T04:11:01;101226.09;;;5.29;40.56
28428;BME280;15662;49.128;8.520;2023-03-01T04:13:51;101229.50;;;5.22;40.43
28428;BME280;15662;49.128;8.520;2023-03-01T04:16:20;101223.31;;;5.13;40.70
28428;BME280;15662;49.128;8.520;2023-03-01T04:18:48;101228.53;;;5.12;40.99
28428;BME280;15662;49.128;8.520;2023-03-01T04:21:16;101231.13;;;5.06;41.04
28428;BME280;15662;49.128;8.520;2023-03-01T04:23:45;101222.31;;;5.01;40.42
28428;BME280;15662;49.128;8.520;2023-03-01T04:26:13;101216.13;;;4.94;40.81
28428;BME280;15662;49.128;8.520;2023-03-01T04:28:42;101214.31;;;4.91;41.06
28428;BME280;15662;49.128;8.520;2023-03-01T04:31:16;101218.69;;;4.89;41.08
28428;BME280;15662;49.128;8.520;2023-03-01T04:33:53;101219.56;;;4.88;40.93
28428;BME280;15662;49.128;8.520;2023-03-01T04:36:25;101221.25;;;4.85;40.75
28428;BME280;15662;49.128;8.520;2023-03-01T04:38:54;101215.03;;;4.75;40.66
28428;BME280;15662;49.128;8.520;2023-03-01T04:41:24;101219.44;;;4.79;41.28
28428;BME280;15662;49.128;8.520;2023-03-01T04:43:52;101223.81;;;4.79;41.20
28428;BME280;15662;49.128;8.520;2023-03-01T04:46:21;101227.34;;;4.81;40.93
28428;BME280;15662;49.128;8.520;2023-03-01T04:48:49;101222.97;;;4.81;41.41
28428;BME280;15662;49.128;8.520;2023-03-01T04:51:17;101230.00;;;4.84;40.83
28428;BME280;15662;49.128;8.520;2023-03-01T04:53:46;101219.47;;;4.82;41.36
28428;BME280;15662;49.128;8.520;2023-03-01T04:56:14;101232.66;;;4.87;41.28
28428;BME280;15662;49.128;8.520;2023-03-01T04:58:43;101232.69;;;4.88;41.19
28428;BME280;15662;49.128;8.520;2023-03-01T05:01:18;101231.88;;;4.96;40.96
28428;BME280;15662;49.128;8.520;2023-03-01T05:03:50;101234.50;;;4.96;41.33
28428;BME280;15662;49.128;8.520;2023-03-01T05:06:20;101229.25;;;4.94;41.21
28428;BME280;15662;49.128;8.520;2023-03-01T05:08:48;101226.63;;;4.94;41.42
28428;BME280;15662;49.128;8.520;2023-03-01T05:11:16;101225.75;;;4.94;41.53
28428;BME280;15662;49.128;8.520;2023-03-01T05:13:44;101233.63;;;4.94;41.18
28428;BME280;15662;49.128;8.520;2023-03-01T05:16:12;101236.22;;;4.90;41.36
28428;BME280;15662;49.128;8.520;2023-03-01T05:18:40;101236.22;;;4.90;41.54
28428;BME280;15662;49.128;8.520;2023-03-01T05:21:12;101237.09;;;4.92;41.09
28428;BME280;15662;49.128;8.520;2023-03-01T05:23:44;101239.69;;;4.89;41.66
28428;BME280;15662;49.128;8.520;2023-03-01T05:26:15;101239.69;;;4.89;41.16
28428;BME280;15662;49.128;8.520;2023-03-01T05:29:00;101233.47;;;4.81;41.70
28428;BME280;15662;49.128;8.520;2023-03-01T05:31:28;101226.41;;;4.77;41.74
28428;BME280;15662;49.128;8.520;2023-03-01T05:33:58;101229.97;;;4.79;41.73
28428;BME280;15662;49.128;8.520;2023-03-01T05:36:26;101221.16;;;4.76;41.48
28428;BME280;15662;49.128;8.520;2023-03-01T05:38:53;101224.66;;;4.75;41.79
28428;BME280;15662;49.128;8.520;2023-03-01T05:41:21;101229.09;;;4.80;41.31
28428;BME280;15662;49.128;8.520;2023-03-01T05:43:52;101224.66;;;4.76;41.96
28428;BME280;15662;49.128;8.520;2023-03-01T05:46:20;101235.22;;;4.81;41.82
28428;BME280;15662;49.128;8.520;2023-03-01T05:48:50;101221.16;;;4.74;41.92
28428;BME280;15662;49.128;8.520;2023-03-01T05:51:18;101226.41;;;4.74;41.77
28428;BME280;15662;49.128;8.520;2023-03-01T05:53:46;101226.41;;;4.77;41.98
28428;BME280;15662;49.128;8.520;2023-03-01T05:56:14;101225.59;;;4.80;41.63
28428;BME280;15662;49.128;8.520;2023-03-01T05:58:42;101222.09;;;4.81;41.63
28428;BME280;15662;49.128;8.520;2023-03-01T06:01:13;101220.38;;;4.83;41.28
28428;BME280;15662;49.128;8.520;2023-03-01T06:03:41;101223.00;;;4.83;41.89
28428;BME280;15662;49.128;8.520;2023-03-01T06:06:09;101221.25;;;4.83;41.42
28428;BME280;15662;49.128;8.520;2023-03-01T06:08:37;101214.19;;;4.79;41.91
28428;BME280;15662;49.128;8.520;2023-03-01T06:11:06;101220.28;;;4.75;41.85
28428;BME280;15662;49.128;8.520;2023-03-01T06:13:35;101230.78;;;4.74;42.08
28428;BME280;15662;49.128;8.520;2023-03-01T06:16:07;101228.03;;;4.68;41.85
28428;BME280;15662;49.128;8.520;2023-03-01T06:18:36;101231.47;;;4.60;41.99
28428;BME280;15662;49.128;8.520;2023-03-01T06:21:05;101235.78;;;4.55;42.17
28428;BME280;15662;49.128;8.520;2023-03-01T06:23:35;101234.84;;;4.49;42.21
28428;BME280;15662;49.128;8.520;2023-03-01T06:26:07;101225.13;;;4.43;42.24
28428;BME280;15662;49.128;8.520;2023-03-01T06:28:37;101236.53;;;4.44;42.41
28428;BME280;15662;49.128;8.520;2023-03-01T06:31:05;101231.16;;;4.37;42.31
28428;BME280;15662;49.128;8.520;2023-03-01T06:33:37;101217.16;;;4.37;42.15
28428;BME280;15662;49.128;8.520;2023-03-01T06:36:05;101235.59;;;4.38;41.73
28428;BME280;15662;49.128;8.520;2023-03-01T06:38:33;101224.16;;;4.38;42.33
28428;BME280;15662;49.128;8.520;2023-03-01T06:41:03;101226.78;;;4.38;42.33
28428;BME280;15662;49.128;8.520;2023-03-01T06:43:31;101230.34;;;4.42;42.07
28428;BME280;15662;49.128;8.520;2023-03-01T06:45:59;101221.63;;;4.43;41.99
28428;BME280;15662;49.128;8.520;2023-03-01T06:48:27;101217.34;;;4.49;42.36
28428;BME280;15662;49.128;8.520;2023-03-01T06:50:59;101213.94;;;4.58;42.06
28428;BME280;15662;49.128;8.520;2023-03-01T06:53:29;101219.22;;;4.61;42.08
28428;BME280;15662;49.128;8.520;2023-03-01T06:55:58;101211.41;;;4.67;42.04
28428;BME280;15662;49.128;8.520;2023-03-01T06:58:27;101211.44;;;4.69;42.02
28428;BME280;15662;49.128;8.520;2023-03-01T07:00:55;101208.84;;;4.72;42.02
28428;BME280;15662;49.128;8.520;2023-03-01T07:03:26;101211.59;;;4.82;42.37
28428;BME280;15662;49.128;8.520;2023-03-01T07:05:55;101217.81;;;4.89;42.01
28428;BME280;15662;49.128;8.520;2023-03-01T07:08:23;101205.59;;;4.94;42.63
28428;BME280;15662;49.128;8.520;2023-03-01T07:10:58;101202.16;;;5.01;42.31
28428;BME280;15662;49.128;8.520;2023-03-01T07:13:28;101205.72;;;5.03;42.45
28428;BME280;15662;49.128;8.520;2023-03-01T07:15:56;101198.75;;;5.08;42.09
28428;BME280;15662;49.128;8.520;2023-03-01T07:18:24;101204.94;;;5.16;42.48
28428;BME280;15662;49.128;8.520;2023-03-01T07:20:52;101197.97;;;5.20;42.82
28428;BME280;15662;49.128;8.520;2023-03-01T07:23:20;101194.50;;;5.24;42.50
28428;BME280;15662;49.128;8.520;2023-03-01T07:25:54;101201.56;;;5.30;42.93
28428;BME280;15662;49.128;8.520;2023-03-01T07:28:24;101186.63;;;5.26;42.85
28428;BME280;15662;49.128;8.520;2023-03-01T07:30:52;101191.06;;;5.30;42.51
28428;BME280;15662;49.128;8.520;2023-03-01T07:33:21;101186.66;;;5.32;42.55
28428;BME280;15662;49.128;8.520;2023-03-01T07:35:59;101187.59;;;5.35;42.68
28428;BME280;15662;49.128;8.520;2023-03-01T07:38:29;101191.97;;;5.33;42.84
28428;BME280;15662;49.128;8.520;2023-03-01T07:41:03;101187.63;;;5.38;42.80
28428;BME280;15662;49.128;8.520;2023-03-01T07:43:33;101184.13;;;5.39;42.79
28428;BME280;15662;49.128;8.520;2023-03-01T07:46:02;101182.38;;;5.38;42.72
28428;BME280;15662;49.128;8.520;2023-03-01T07:48:31;101173.72;;;5.52;42.72
28428;BME280;15662;49.128;8.520;2023-03-01T07:51:01;101175.53;;;5.59;42.79
28428;BME280;15662;49.128;8.520;2023-03-01T07:53:32;101177.28;;;5.61;43.04
28428;BME280;15662;49.128;8.520;2023-03-01T07:56:10;101179.09;;;5.67;42.65
28428;BME280;15662;49.128;8.520;2023-03-01T07:58:41;101181.75;;;5.72;43.15
28428;BME280;15662;49.128;8.520;2023-03-01T08:01:13;101185.31;;;5.78;42.83
28428;BME280;15662;49.128;8.520;2023-03-01T08:03:43;101181.78;;;5.81;42.92
28428;BME280;15662;49.128;8.520;2023-03-01T08:06:17;101175.72;;;5.86;42.86
28428;BME280;15662;49.128;8.520;2023-03-01T08:08:46;101165.19;;;5.88;42.63
28428;BME280;15662;49.128;8.520;2023-03-01T08:11:14;101189.81;;;5.91;42.86
28428;BME280;15662;49.128;8.520;2023-03-01T08:13:43;101179.22;;;5.90;42.69
28428;BME280;15662;49.128;8.520;2023-03-01T08:16:14;101181.94;;;5.94;42.79
28428;BME280;15662;49.128;8.520;2023-03-01T08:18:43;101176.69;;;5.99;42.64
28428;BME280;15662;49.128;8.520;2023-03-01T08:21:16;101171.47;;;6.04;42.74
28428;BME280;15662;49.128;8.520;2023-03-01T08:23:45;101177.63;;;6.09;42.59
28428;BME280;15662;49.128;8.520;2023-03-01T08:26:17;101174.16;;;6.19;42.67
28428;BME280;15662;49.128;8.520;2023-03-01T08:28:48;101165.41;;;6.25;42.79
28428;BME280;15662;49.128;8.520;2023-03-01T08:31:26;101159.28;;;6.29;42.70
28428;BME280;15662;49.128;8.520;2023-03-01T08:33:59;101155.81;;;6.39;42.66
28428;BME280;15662;49.128;8.520;2023-03-01T08:36:37;101154.13;;;6.52;42.52
28428;BME280;15662;49.128;8.520;2023-03-01T08:39:08;101160.28;;;6.54;42.47
28428;BME280;15662;49.128;8.520;2023-03-01T08:41:39;101151.47;;;6.55;42.44
28428;BME280;15662;49.128;8.520;2023-03-01T08:44:12;101148.00;;;6.59;42.25
28428;BME280;15662;49.128;8.520;2023-03-01T08:46:43;101151.53;;;6.73;42.57
28428;BME280;15662;49.128;8.520;2023-03-01T08:49:16;101146.31;;;6.81;42.27
28428;BME280;15662;49.128;8.520;2023-03-01T08:51:47;101144.53;;;6.84;42.08
28428;BME280;15662;49.128;8.520;2023-03-01T08:54:20;101142.78;;;6.89;41.62
28428;BME280;15662;49.128;8.520;2023-03-01T08:56:48;101141.06;;;6.90;42.33
28428;BME280;15662;49.128;8.520;2023-03-01T08:59:35;101136.66;;;6.98;42.28
28428;BME280;15662;49.128;8.520;2023-03-01T09:02:24;101136.66;;;7.03;41.74
28428;BME280;15662;49.128;8.520;2023-03-01T09:04:56;101131.41;;;7.10;41.91
28428;BME280;15662;49.128;8.520;2023-03-01T09:07:24;101132.28;;;7.17;41.72
28428;BME280;15662;49.128;8.520;2023-03-01T09:09:58;101136.69;;;7.22;41.57
28428;BME280;15662;49.128;8.520;2023-03-01T09:12:29;101143.72;;;7.30;41.77
28428;BME280;15662;49.128;8.520;2023-03-01T09:14:57;101124.38;;;7.32;41.61
28428;BME280;15662;49.128;8.520;2023-03-01T09:17:24;101130.53;;;7.42;41.37
28428;BME280;15662;49.128;8.520;2023-03-01T09:19:53;101129.63;;;7.46;41.12
28428;BME280;15662;49.128;8.520;2023-03-01T09:22:20;101130.50;;;7.51;41.37
28428;BME280;15662;49.128;8.520;2023-03-01T09:24:48;101123.47;;;7.56;41.11
28428;BME280;15662;49.128;8.520;2023-03-01T09:27:16;101118.19;;;7.59;40.96
28428;BME280;15662;49.128;8.520;2023-03-01T09:29:46;101119.06;;;7.63;41.05
28428;BME280;15662;49.128;8.520;2023-03-01T09:32:14;101119.94;;;7.66;41.09
28428;BME280;15662;49.128;8.520;2023-03-01T09:34:42;101122.56;;;7.72;41.10
28428;BME280;15662;49.128;8.520;2023-03-01T09:37:29;101115.50;;;7.78;41.00
28428;BME280;15662;49.128;8.520;2023-03-01T09:40:00;101114.63;;;7.83;41.03
28428;BME280;15662;49.128;8.520;2023-03-01T09:42:29;101116.38;;;7.93;40.89
28428;BME280;15662;49.128;8.520;2023-03-01T09:45:11;101111.03;;;8.02;40.62
28428;BME280;15662;49.128;8.520;2023-03-01T09:47:47;101089.94;;;8.01;40.69
28428;BME280;15662;49.128;8.520;2023-03-01T09:50:20;101105.78;;;7.99;40.25
28428;BME280;15662;49.128;8.520;2023-03-01T09:53:12;101107.50;;;8.07;40.72
28428;BME280;15662;49.128;8.520;2023-03-01T09:56:05;101096.03;;;8.15;40.45
28428;BME280;15662;49.128;8.520;2023-03-01T10:01:46;101091.59;;;8.25;40.40
28428;BME280;15662;49.128;8.520;2023-03-01T10:10:29;101087.16;;;8.42;40.31
28428;BME280;15662;49.128;8.520;2023-03-01T10:13:05;101085.38;;;8.44;40.56
28428;BME280;15662;49.128;8.520;2023-03-01T10:15:53;101074.84;;;8.38;39.86
28428;BME280;15662;49.128;8.520;2023-03-01T10:18:29;101082.69;;;8.49;40.03
28428;BME280;15662;49.128;8.520;2023-03-01T10:21:02;101073.81;;;8.59;40.16
28428;BME280;15662;49.128;8.520;2023-03-01T10:23:32;101061.47;;;8.64;40.26
28428;BME280;15662;49.128;8.520;2023-03-01T10:29:07;101051.66;;;8.80;39.57
28428;BME280;15662;49.128;8.520;2023-03-01T10:31:51;101058.66;;;8.87;40.02
28428;BME280;15662;49.128;8.520;2023-03-01T10:34:30;101055.97;;;8.90;39.22
28428;BME280;15662;49.128;8.520;2023-03-01T10:37:17;101033.00;;;8.98;39.41
28428;BME280;15662;49.128;8.520;2023-03-01T10:40:09;101047.91;;;9.05;39.22
28428;BME280;15662;49.128;8.520;2023-03-01T10:42:48;101043.44;;;9.11;39.20
28428;BME280;15662;49.128;8.520;2023-03-01T10:45:35;101033.72;;;9.16;39.33
28428;BME280;15662;49.128;8.520;2023-03-01T10:50:36;101047.69;;;9.30;39.46
28428;BME280;15662;49.128;8.520;2023-03-01T10:56:06;101021.97;;;9.44;39.07
28428;BME280;15662;49.128;8.520;2023-03-01T10:58:38;101018.41;;;9.45;38.85
28428;BME280;15662;49.128;8.520;2023-03-01T11:03:45;100999.00;;;9.48;38.64
28428;BME280;15662;49.128;8.520;2023-03-01T11:08:48;100993.53;;;9.63;38.72
28428;BME280;15662;49.128;8.520;2023-03-01T11:11:33;100999.63;;;9.71;38.73
28428;BME280;15662;49.128;8.520;2023-03-01T11:14:17;100996.03;;;9.74;38.37
28428;BME280;15662;49.128;8.520;2023-03-01T11:17:04;101000.44;;;9.75;38.65
28428;BME280;15662;49.128;8.520;2023-03-01T11:19:33;100981.03;;;9.76;38.64
28428;BME280;15662;49.128;8.520;2023-03-01T11:22:21;100987.09;;;9.86;38.21
28428;BME280;15662;49.128;8.520;2023-03-01T11:24:53;100983.50;;;9.88;38.14
28428;BME280;15662;49.128;8.520;2023-03-01T11:27:44;100977.28;;;9.92;37.83
28428;BME280;15662;49.128;8.520;2023-03-01T11:30:41;100973.63;;;9.99;38.05
28428;BME280;15662;49.128;8.520;2023-03-01T11:36:46;100962.06;;;10.06;38.12
28428;BME280;15662;49.128;8.520;2023-03-01T11:39:53;100962.84;;;10.13;37.97
28428;BME280;15662;49.128;8.520;2023-03-01T11:42:46;100948.66;;;10.17;37.79
28428;BME280;15662;49.128;8.520;2023-03-01T11:45:16;100944.19;;;10.22;38.15
28428;BME280;15662;49.128;8.520;2023-03-01T11:50:37;100936.09;;;10.35;37.27
28428;BME280;15662;49.128;8.520;2023-03-01T11:56:54;100906.88;;;10.38;37.12
28428;BME280;15662;49.128;8.520;2023-03-01T11:59:50;100905.09;;;10.38;37.29
28428;BME280;15662;49.128;8.520;2023-03-01T12:08:13;100907.56;;;10.49;37.16
28428;BME280;15662;49.128;8.520;2023-03-01T12:28:16;100883.47;;;10.63;37.08
28428;BME280;15662;49.128;8.520;2023-03-01T12:40:32;100866.06;;;10.96;36.65
28428;BME280;15662;49.128;8.520;2023-03-01T12:43:13;100858.06;;;10.99;36.64
28428;BME280;15662;49.128;8.520;2023-03-01T12:46:20;100858.00;;;11.02;36.45
28428;BME280;15662;49.128;8.520;2023-03-01T12:49:22;100844.59;;;11.08;36.34
28428;BME280;15662;49.128;8.520;2023-03-01T12:52:16;100845.50;;;11.08;36.36
28428;BME280;15662;49.128;8.520;2023-03-01T12:54:56;100839.25;;;11.11;36.64
28428;BME280;15662;49.128;8.520;2023-03-01T12:57:38;100831.97;;;11.21;36.66
28428;BME280;15662;49.128;8.520;2023-03-01T13:00:31;100836.13;;;11.32;36.21
28428;BME280;15662;49.128;8.520;2023-03-01T13:03:23;100828.97;;;11.36;36.40
28428;BME280;15662;49.128;8.520;2023-03-01T13:06:18;100824.59;;;11.35;36.27
28428;BME280;15662;49.128;8.520;2023-03-01T13:20:49;100804.16;;;11.39;36.03
28428;BME280;15662;49.128;8.520;2023-03-01T13:31:04;100774.78;;;11.46;35.65
28428;BME280;15662;49.128;8.520;2023-03-01T13:33:41;100783.50;;;11.51;35.85
28428;BME280;15662;49.128;8.520;2023-03-01T13:36:10;100786.00;;;11.57;35.63
28428;BME280;15662;49.128;8.520;2023-03-01T13:44:26;100762.81;;;11.66;35.67
28428;BME280;15662;49.128;8.520;2023-03-01T13:47:16;100769.00;;;11.68;35.47
28428;BME280;15662;49.128;8.520;2023-03-01T13:52:44;100767.91;;;11.75;35.51
28428;BME280;15662;49.128;8.520;2023-03-01T13:57:57;100774.00;;;11.80;35.26
28428;BME280;15662;49.128;8.520;2023-03-01T14:03:02;100752.81;;;11.77;35.12
28428;BME280;15662;49.128;8.520;2023-03-01T14:05:33;100753.59;;;11.82;35.36
28428;BME280;15662;49.128;8.520;2023-03-01T14:08:05;100751.78;;;11.84;35.06
28428;BME280;15662;49.128;8.520;2023-03-01T14:19:36;100762.03;;;11.99;35.07
28428;BME280;15662;49.128;8.520;2023-03-01T14:22:27;100754.81;;;12.04;35.13
28428;BME280;15662;49.128;8.520;2023-03-01T14:25:04;100757.34;;;12.09;34.97
28428;BME280;15662;49.128;8.520;2023-03-01T14:27:39;100763.47;;;12.12;35.02
28428;BME280;15662;49.128;8.520;2023-03-01T14:30:34;100746.56;;;12.15;35.05
28428;BME280;15662;49.128;8.520;2023-03-01T14:33:16;100746.63;;;12.13;35.09
28428;BME280;15662;49.128;8.520;2023-03-01T14:36:00;100738.53;;;12.17;35.07
28428;BME280;15662;49.128;8.520;2023-03-01T14:38:36;100747.38;;;12.19;34.68
28428;BME280;15662;49.128;8.520;2023-03-01T14:41:17;100736.66;;;12.22;34.66
28428;BME280;15662;49.128;8.520;2023-03-01T14:46:40;100746.09;;;12.33;34.64
28428;BME280;15662;49.128;8.520;2023-03-01T14:49:19;100730.25;;;12.29;34.68
28428;BME280;15662;49.128;8.520;2023-03-01T14:54:43;100736.31;;;12.34;34.51
28428;BME280;15662;49.128;8.520;2023-03-01T14:57:17;100729.22;;;12.34;34.69
28428;BME280;15662;49.128;8.520;2023-03-01T15:00:07;100736.25;;;12.35;34.53
28428;BME280;15662;49.128;8.520;2023-03-01T15:02:58;100739.78;;;12.37;34.62
28428;BME280;15662;49.128;8.520;2023-03-01T15:05:33;100744.09;;;12.42;34.51
28428;BME280;15662;49.128;8.520;2023-03-01T15:08:02;100752.94;;;12.42;34.45
28428;BME280;15662;49.128;8.520;2023-03-01T15:10:34;100751.09;;;12.44;34.80
28428;BME280;15662;49.128;8.520;2023-03-01T15:13:21;100761.63;;;12.49;34.18
28428;BME280;15662;49.128;8.520;2023-03-01T15:16:01;100765.19;;;12.48;34.47
28428;BME280;15662;49.128;8.520;2023-03-01T15:18:30;100763.47;;;12.45;34.47
28428;BME280;15662;49.128;8.520;2023-03-01T15:21:20;100756.47;;;12.43;34.05
28428;BME280;15662;49.128;8.520;2023-03-01T15:23:54;100786.53;;;12.45;34.05
28428;BME280;15662;49.128;8.520;2023-03-01T15:26:28;100782.09;;;12.45;34.06
28428;BME280;15662;49.128;8.520;2023-03-01T15:28:59;100779.53;;;12.42;34.24
28428;BME280;15662;49.128;8.520;2023-03-01T15:31:36;100778.69;;;12.40;34.37
28428;BME280;15662;49.128;8.520;2023-03-01T15:36:48;100776.00;;;12.42;34.37
28428;BME280;15662;49.128;8.520;2023-03-01T15:39:43;100778.66;;;12.42;34.03